Time;durP1;ratioP1;P1;durP2;ratioP2;P2;SDS_P1;SDS_P2;PMS_P1;PMS_P2;Temp;Humidity;BMP_temperature;BMP_pressure;BME280_temperature;BME280_humidity;BME280_pressure;Samples;Min_cycle;Max_cycle;Signal;HPM_P1;HPM_P2
2022/07/26 06:26:06;;;;;;;8.87;3.10;;;;;;;26.00;41.96;97778.91;8487330;23;20518;-75
2022/07/26 06:30:10;;;;;;;8.50;2.77;;;;;;;25.96;41.93;97774.13;8089475;29;20238;-76
2022/07/26 06:34:13;;;;;;;11.60;3.13;;;;;;;26.17;41.91;97785.00;8097384;29;20227;-74
2022/07/26 06:38:16;;;;;;;9.03;2.83;;;;;;;26.36;40.81;97782.94;8097140;29;20230;-75
2022/07/26 06:42:20;;;;;;;10.87;2.70;;;;;;;26.50;41.75;97782.19;8097172;29;20237;-72
2022/07/26 06:46:23;;;;;;;11.57;3.10;;;;;;;26.52;41.57;97780.19;8096883;29;20244;-72
2022/07/26 06:50:26;;;;;;;4.20;2.23;;;;;;;26.72;40.59;97778.78;8096702;29;20243;-71
2022/07/26 06:54:28;;;;;;;20.07;3.50;;;;;;;26.98;40.92;97766.16;8096714;29;20590;-71
2022/07/26 06:58:33;;;;;;;13.17;3.53;;;;;;;27.22;40.17;97760.66;8096442;29;20240;-72
2022/07/26 07:02:35;;;;;;;10.80;3.07;;;;;;;27.31;39.94;97772.09;8109392;29;20239;-72
2022/07/26 07:06:39;;;;;;;12.00;2.53;;;;;;;27.64;38.56;97761.16;8127596;29;20537;-72
2022/07/26 07:10:42;;;;;;;8.67;2.60;;;;;;;27.73;38.64;97767.22;8115718;29;20253;-73
2022/07/26 07:14:46;;;;;;;10.60;3.10;;;;;;;27.87;38.86;97759.25;8110689;29;20262;-71
2022/07/26 07:18:50;;;;;;;9.00;2.70;;;;;;;28.12;38.76;97758.16;8094579;29;20300;-71
2022/07/26 07:22:52;;;;;;;6.23;2.43;;;;;;;28.17;37.34;97748.59;8108114;29;20234;-72
2022/07/26 07:26:55;;;;;;;4.67;2.20;;;;;;;28.34;36.99;97757.22;8095625;29;20252;-71
2022/07/26 07:31:00;;;;;;;5.27;2.40;;;;;;;28.18;37.32;97757.41;8122050;29;20243;-73
2022/07/26 07:35:06;;;;;;;8.30;2.63;;;;;;;28.47;37.13;97764.53;8126522;29;20573;-70
2022/07/26 07:39:14;;;;;;;7.67;2.50;;;;;;;28.45;37.11;97769.25;8118966;29;20435;-72
2022/07/26 07:43:19;;;;;;;4.93;1.80;;;;;;;29.03;36.11;97764.78;8111148;29;20237;-72
2022/07/26 07:47:23;;;;;;;5.70;2.50;;;;;;;28.74;35.80;97772.88;8110220;29;20236;-72
2022/07/26 07:51:26;;;;;;;7.10;2.73;;;;;;;29.23;35.35;97766.81;8109510;29;20267;-69
2022/07/26 07:55:31;;;;;;;3.73;2.10;;;;;;;29.55;34.26;97756.59;8123553;29;20236;-72
2022/07/26 07:59:43;;;;;;;9.90;2.50;;;;;;;28.43;35.59;97760.63;8125755;29;20591;-70
2022/07/26 08:03:50;;;;;;;8.90;2.10;;;;;;;28.44;37.35;97767.56;8125600;29;20238;-71
2022/07/26 08:07:53;;;;;;;3.77;2.00;;;;;;;29.17;35.08;97760.41;8125002;29;20244;-71
2022/07/26 08:11:56;;;;;;;4.63;2.17;;;;;;;29.59;33.47;97744.53;8125056;29;20249;-73
2022/07/26 08:15:59;;;;;;;6.40;2.10;;;;;;;28.98;35.04;97747.69;8099131;29;20293;-72
2022/07/26 08:20:04;;;;;;;7.13;2.13;;;;;;;29.53;34.30;97754.13;8093978;29;20237;-72
2022/07/26 08:24:10;;;;;;;6.93;2.00;;;;;;;29.89;32.84;97757.66;8094088;29;20289;-74
2022/07/26 08:28:15;;;;;;;4.33;2.00;;;;;;;30.21;32.61;97761.53;8093665;29;20239;-72
2022/07/26 08:32:38;;;;;;;4.53;1.90;;;;;;;29.07;34.83;97756.38;8093513;29;20242;-71
2022/07/26 08:36:42;;;;;;;7.00;2.10;;;;;;;29.26;32.47;97762.94;8093692;29;20406;-73
2022/07/26 08:41:05;;;;;;;6.30;2.10;;;;;;;29.96;31.23;97767.34;8093369;29;20525;-73
2022/07/26 08:45:09;;;;;;;8.27;2.00;;;;;;;30.14;30.16;97760.66;8093386;29;20240;-72
2022/07/26 08:49:12;;;;;;;7.10;2.17;;;;;;;30.29;29.87;97756.03;8093478;29;20238;-72
2022/07/26 08:53:17;;;;;;;8.57;2.20;;;;;;;30.49;29.48;97764.16;8093511;29;20236;-73
2022/07/26 08:57:20;;;;;;;4.90;1.97;;;;;;;31.23;28.82;97756.31;8093410;29;20234;-73
2022/07/26 09:01:23;;;;;;;10.17;2.27;;;;;;;30.23;31.22;97764.81;8092934;29;20235;-73
2022/07/26 09:05:30;;;;;;;5.63;2.10;;;;;;;30.77;29.50;97766.69;8093247;29;20252;-71
2022/07/26 09:09:37;;;;;;;6.17;2.50;;;;;;;30.92;28.73;97777.25;8093123;29;20234;-71
2022/07/26 09:13:50;;;;;;;4.77;1.90;;;;;;;30.74;29.06;97769.75;8092546;29;20239;-72
2022/07/26 09:17:54;;;;;;;5.03;1.90;;;;;;;31.06;27.65;97756.69;8116569;29;20231;-73
2022/07/26 09:22:06;;;;;;;5.90;2.00;;;;;;;31.04;28.37;97769.44;8104680;29;20247;-71
2022/07/26 09:26:13;;;;;;;6.83;2.20;;;;;;;29.99;30.11;97769.66;8118446;29;20238;-72
2022/07/26 09:30:16;;;;;;;11.87;2.03;;;;;;;29.88;30.68;97772.03;8123510;29;20244;-71
2022/07/26 09:34:24;;;;;;;6.73;2.30;;;;;;;29.24;31.91;97768.44;8123497;29;20263;-71
2022/07/26 09:38:38;;;;;;;7.50;2.23;;;;;;;28.80;32.16;97778.25;8123421;29;20231;-71
2022/07/26 09:42:55;;;;;;;5.17;2.20;;;;;;;29.71;29.59;97782.97;8128311;29;20237;-72
2022/07/26 09:51:56;;;;;;;6.57;2.00;;;;;;;30.97;28.60;97780.13;8128922;29;20241;-72
2022/07/26 09:55:59;;;;;;;4.67;2.00;;;;;;;30.98;28.68;97775.63;8129465;29;20234;-72
2022/07/26 10:00:05;;;;;;;4.87;2.00;;;;;;;31.36;28.45;97775.84;8129232;29;20239;-72
2022/07/26 10:04:09;;;;;;;7.40;2.10;;;;;;;30.84;27.70;97781.91;8110386;29;20274;-72
2022/07/26 10:08:13;;;;;;;7.40;1.90;;;;;;;31.42;26.65;97773.38;8098149;29;20233;-72
2022/07/26 10:12:17;;;;;;;4.93;1.80;;;;;;;30.06;28.19;97774.19;8097550;29;20544;-73
2022/07/26 10:16:31;;;;;;;6.43;1.70;;;;;;;29.67;28.37;97772.91;8097517;29;20241;-73
2022/07/26 10:20:47;;;;;;;5.30;1.50;;;;;;;30.55;27.38;97776.69;8097562;29;20233;-72
2022/07/26 10:24:49;;;;;;;10.13;1.57;;;;;;;31.27;25.93;97765.56;8066278;29;20348;-72
2022/07/26 10:29:22;;;;;;;4.03;1.47;;;;;;;30.20;26.85;97775.91;8066232;29;20358;-72
2022/07/26 10:33:29;;;;;;;5.57;1.50;;;;;;;29.70;28.07;97776.00;8065983;29;20309;-72
2022/07/26 10:37:31;;;;;;;5.93;1.53;;;;;;;30.58;25.82;97784.31;8066279;29;20448;-72
2022/07/26 10:41:37;;;;;;;16.57;2.70;;;;;;;30.71;25.50;97786.22;8065962;29;20564;-72
2022/07/26 10:45:40;;;;;;;4.63;1.53;;;;;;;30.82;26.13;97781.31;8066137;29;20234;-73
2022/07/26 10:49:54;;;;;;;6.07;1.50;;;;;;;31.50;23.20;97774.00;8065959;29;20237;-72
2022/07/26 10:54:01;;;;;;;3.07;1.30;;;;;;;32.04;22.85;97766.75;8094927;29;20435;-72
2022/07/26 10:58:05;;;;;;;6.47;1.30;;;;;;;32.14;23.24;97772.50;8096212;29;20235;-72
2022/07/26 11:02:17;;;;;;;4.73;1.40;;;;;;;31.04;24.94;97793.50;8105644;29;20269;-73
2022/07/26 11:06:22;;;;;;;6.33;1.23;;;;;;;30.53;25.32;97777.94;8127505;29;20351;-72
2022/07/26 11:10:27;;;;;;;7.80;1.40;;;;;;;31.49;23.86;97774.22;8127438;29;20399;-72
2022/07/26 11:14:29;;;;;;;6.63;1.10;;;;;;;32.12;23.68;97769.22;8126991;29;20562;-72
2022/07/26 11:18:34;;;;;;;6.50;1.20;;;;;;;32.55;23.80;97778.50;8126701;29;20237;-71
2022/07/26 11:22:39;;;;;;;4.10;1.20;;;;;;;32.62;22.33;97773.16;8126844;29;20242;-72
2022/07/26 11:26:42;;;;;;;6.37;1.07;;;;;;;32.44;22.27;97766.59;8118229;29;20542;-73
2022/07/26 11:30:56;;;;;;;3.90;1.10;;;;;;;32.90;22.06;97760.22;8126139;29;20238;-72
2022/07/26 11:35:00;;;;;;;5.97;1.17;;;;;;;32.92;21.17;97768.03;8124450;29;20523;-72
2022/07/26 11:39:05;;;;;;;3.70;1.30;;;;;;;33.18;21.78;97760.88;8095074;29;20546;-72
2022/07/26 11:43:08;;;;;;;4.73;1.33;;;;;;;33.11;20.96;97758.25;8102040;29;20235;-71
2022/07/26 11:47:12;;;;;;;4.30;1.10;;;;;;;32.97;21.29;97768.19;8125727;29;20240;-72
2022/07/26 11:51:17;;;;;;;4.43;1.10;;;;;;;33.29;21.06;97760.97;8125758;29;20242;-71
2022/07/26 11:55:27;;;;;;;4.67;1.20;;;;;;;32.98;20.70;97756.44;8125653;29;20259;-72
2022/07/26 11:59:32;;;;;;;3.93;1.20;;;;;;;32.03;22.23;97767.78;8125381;29;20346;-72
2022/07/26 12:03:35;;;;;;;8.83;1.50;;;;;;;31.38;23.14;97748.91;8125040;29;20537;-72
2022/07/26 12:07:38;;;;;;;7.83;1.50;;;;;;;31.29;23.90;97758.16;8125334;29;20364;-72
2022/07/26 12:11:46;;;;;;;12.23;1.90;;;;;;;32.57;22.67;97757.72;8125012;29;20258;-72
2022/07/26 12:15:51;;;;;;;5.27;1.40;;;;;;;32.42;22.51;97766.00;8117167;29;20408;-72
2022/07/26 12:19:54;;;;;;;3.70;1.03;;;;;;;32.97;21.69;97762.84;8125174;29;20241;-72
2022/07/26 12:23:57;;;;;;;3.40;1.40;;;;;;;32.00;22.55;97759.31;8125052;29;20504;-72
2022/07/26 12:28:01;;;;;;;3.77;1.30;;;;;;;31.65;23.86;97775.66;8124941;29;20302;-72
2022/07/26 12:32:09;;;;;;;5.90;1.40;;;;;;;30.65;25.20;97783.50;8124744;29;20568;-71
2022/07/26 12:36:18;;;;;;;5.13;1.40;;;;;;;30.42;25.85;97765.16;8124530;29;20346;-72
2022/07/26 12:40:31;;;;;;;5.17;1.13;;;;;;;31.66;24.17;97755.88;8124359;29;20239;-72
2022/07/26 12:44:35;;;;;;;2.77;1.33;;;;;;;32.27;24.07;97760.91;8124383;29;20239;-73
2022/07/26 12:48:40;;;;;;;3.43;1.37;;;;;;;30.83;24.99;97761.56;8124377;29;20247;-73
2022/07/26 12:52:43;;;;;;;3.93;1.30;;;;;;;31.49;23.84;97760.84;8124057;29;20234;-73
2022/07/26 12:56:46;;;;;;;4.27;1.23;;;;;;;31.55;23.73;97752.81;8124004;29;20482;-73
2022/07/26 13:00:51;;;;;;;4.20;1.03;;;;;;;31.72;23.56;97753.22;8116041;29;20234;-72
2022/07/26 13:04:54;;;;;;;4.90;1.17;;;;;;;30.66;24.90;97761.13;8123738;29;20242;-73
2022/07/26 13:09:02;;;;;;;6.23;1.00;;;;;;;31.63;23.97;97748.28;8123716;29;20419;-73
2022/07/26 13:13:05;;;;;;;2.17;0.90;;;;;;;31.91;23.17;97759.56;8123493;29;20241;-73
2022/07/26 13:17:10;;;;;;;1.27;0.80;;;;;;;31.79;23.15;97763.06;8123074;29;20243;-73
2022/07/26 13:21:13;;;;;;;3.47;1.00;;;;;;;30.92;22.81;97766.56;8123669;29;20247;-73
2022/07/26 13:25:16;;;;;;;2.53;0.93;;;;;;;31.40;23.48;97759.38;8123108;29;20237;-73
2022/07/26 13:29:19;;;;;;;3.23;0.80;;;;;;;31.53;22.66;97751.41;8123008;29;20443;-73
2022/07/26 13:33:23;;;;;;;2.67;0.80;;;;;;;32.26;22.17;97756.59;8123230;29;20240;-71
2022/07/26 13:37:26;;;;;;;1.63;1.00;;;;;;;32.32;21.40;97762.94;8123139;29;20234;-71
2022/07/26 13:41:29;;;;;;;1.77;0.70;;;;;;;32.24;21.74;97758.66;8123278;29;20243;-71
2022/07/26 13:45:32;;;;;;;2.63;1.00;;;;;;;31.79;21.74;97749.69;8123141;29;20290;-71
2022/07/26 13:49:37;;;;;;;2.73;0.80;;;;;;;32.31;20.18;97753.25;8123176;29;20261;-71
2022/07/26 13:53:40;;;;;;;2.20;1.00;;;;;;;32.51;20.02;97745.13;8122804;29;20238;-71
2022/07/26 13:57:57;;;;;;;2.10;0.60;;;;;;;32.35;20.06;97754.50;8091746;29;20286;-72
2022/07/26 14:02:00;;;;;;;3.40;0.80;;;;;;;32.20;19.70;97752.09;8092039;29;20230;-72
2022/07/26 14:06:05;;;;;;;3.57;0.67;;;;;;;32.34;20.18;97759.00;8091767;29;20253;-71
2022/07/26 14:10:09;;;;;;;4.73;0.90;;;;;;;32.52;20.20;97758.34;8091638;29;20298;-72
2022/07/26 14:14:12;;;;;;;1.60;0.80;;;;;;;32.66;19.42;97766.34;8091532;29;20302;-71
2022/07/26 14:18:15;;;;;;;2.73;0.83;;;;;;;32.62;20.06;97765.13;8091148;29;20235;-72
2022/07/26 14:22:20;;;;;;;10.80;1.60;;;;;;;32.64;19.50;97763.88;8091495;29;20273;-71
2022/07/26 14:26:23;;;;;;;1.53;0.60;;;;;;;32.29;19.47;97760.69;8092291;29;20240;-71
2022/07/26 14:30:28;;;;;;;2.33;0.77;;;;;;;32.40;20.18;97757.34;8097418;29;20288;-73
2022/07/26 14:34:31;;;;;;;3.93;0.80;;;;;;;32.44;19.46;97753.19;8097264;29;20243;-72
2022/07/26 14:38:35;;;;;;;2.63;0.90;;;;;;;32.40;18.87;97751.16;8097257;29;20248;-72
2022/07/26 14:42:38;;;;;;;1.80;0.43;;;;;;;32.07;19.14;97736.88;8097041;29;20234;-72
2022/07/26 14:46:42;;;;;;;3.07;0.90;;;;;;;32.12;19.72;97742.44;8096990;29;20235;-72
2022/07/26 14:50:46;;;;;;;1.83;0.97;;;;;;;32.08;20.03;97749.25;8096921;29;20238;-72
2022/07/26 14:55:10;;;;;;;5.20;0.97;;;;;;;31.96;19.77;97757.06;8096118;29;20251;-72
2022/07/26 14:59:13;;;;;;;1.70;0.83;;;;;;;31.62;20.41;97747.44;8096820;29;20261;-72
2022/07/26 15:03:16;;;;;;;3.20;0.93;;;;;;;31.98;20.16;97750.69;8114633;29;20561;-72
2022/07/26 15:07:19;;;;;;;1.80;0.80;;;;;;;31.90;20.21;97746.38;8127273;29;20232;-73
2022/07/26 15:11:23;;;;;;;2.77;0.70;;;;;;;31.92;20.10;97749.66;8126925;29;20235;-72
2022/07/26 15:15:28;;;;;;;3.67;0.80;;;;;;;30.99;21.41;97743.31;8127112;29;20416;-72
2022/07/26 15:19:31;;;;;;;2.47;0.80;;;;;;;30.79;21.70;97750.47;8127165;29;20235;-72
2022/07/26 15:23:38;;;;;;;3.23;0.80;;;;;;;30.99;22.23;97742.50;8126353;29;20248;-72
2022/07/26 15:27:44;;;;;;;2.23;0.83;;;;;;;30.29;22.47;97755.19;8126903;29;20236;-72
2022/07/26 15:31:49;;;;;;;1.83;0.87;;;;;;;30.78;22.15;97743.47;8126471;29;20227;-72
2022/07/26 15:35:54;;;;;;;5.63;1.00;;;;;;;30.83;22.22;97754.38;8118986;29;20508;-73
2022/07/26 15:39:56;;;;;;;5.07;0.83;;;;;;;30.71;22.57;97748.81;8125791;29;20247;-73
2022/07/26 15:44:01;;;;;;;6.07;1.30;;;;;;;30.14;23.39;97755.31;8110647;29;20572;-74
2022/07/26 15:48:06;;;;;;;4.73;0.90;;;;;;;29.68;23.60;97758.53;8094248;29;20266;-73
2022/07/26 15:52:18;;;;;;;2.27;0.77;;;;;;;29.32;24.40;97764.81;8094889;29;20430;-73
2022/07/26 15:56:21;;;;;;;2.97;0.97;;;;;;;29.12;24.70;97764.63;8094608;29;20245;-73
2022/07/26 16:00:25;;;;;;;3.20;1.13;;;;;;;29.67;24.03;97768.38;8094638;29;20449;-73
2022/07/26 16:04:28;;;;;;;2.73;0.83;;;;;;;29.68;24.58;97761.19;8121768;29;20239;-73
2022/07/26 16:08:31;;;;;;;6.47;1.13;;;;;;;29.67;24.95;97764.91;8125513;29;20234;-73
2022/07/26 16:12:34;;;;;;;2.17;1.23;;;;;;;29.87;24.73;97763.19;8125568;29;20233;-71
2022/07/26 16:16:38;;;;;;;1.70;0.90;;;;;;;29.82;24.23;97768.31;8115616;29;20241;-73
2022/07/26 16:20:41;;;;;;;5.77;1.10;;;;;;;30.11;24.60;97761.09;8094256;29;20577;-73
2022/07/26 16:24:44;;;;;;;4.63;1.10;;;;;;;29.85;24.31;97759.09;8093939;29;20248;-73
2022/07/26 16:28:47;;;;;;;4.43;1.00;;;;;;;29.84;24.59;97758.25;8093371;29;20240;-72
2022/07/26 16:32:52;;;;;;;2.70;1.20;;;;;;;29.77;25.40;97752.06;8093632;29;20442;-73
2022/07/26 16:36:54;;;;;;;3.90;1.17;;;;;;;29.57;25.61;97741.25;8093791;29;20440;-73
2022/07/26 16:40:57;;;;;;;3.30;0.93;;;;;;;29.39;26.20;97742.53;8093741;29;20249;-73
2022/07/26 16:45:00;;;;;;;4.87;1.00;;;;;;;29.56;25.88;97744.91;8095979;29;20231;-73
2022/07/26 16:49:04;;;;;;;6.97;0.90;;;;;;;29.44;25.96;97740.09;8093226;29;20281;-73
2022/07/26 16:53:07;;;;;;;5.73;1.10;;;;;;;29.05;26.76;97749.41;8107269;29;20521;-73
2022/07/26 16:57:14;;;;;;;7.43;1.30;;;;;;;29.30;27.76;97756.19;8092981;29;20256;-73
2022/07/26 17:01:17;;;;;;;5.70;1.00;;;;;;;29.15;26.85;97751.78;8095825;29;20238;-73
2022/07/26 17:05:21;;;;;;;3.80;1.00;;;;;;;29.16;27.08;97749.94;8124210;29;20233;-73
2022/07/26 17:09:24;;;;;;;2.93;1.10;;;;;;;28.89;27.24;97756.84;8123708;29;20237;-72
2022/07/26 17:13:27;;;;;;;3.27;1.10;;;;;;;28.61;27.78;97754.88;8123870;29;20233;-69
2022/07/26 17:17:30;;;;;;;3.70;0.97;;;;;;;28.46;27.92;97753.06;8123501;29;20251;-75
2022/07/26 17:21:34;;;;;;;3.30;1.10;;;;;;;28.25;28.02;97759.19;8097907;29;20229;-72
2022/07/26 17:25:37;;;;;;;4.53;1.27;;;;;;;28.22;28.45;97759.53;8092712;29;20245;-72
2022/07/26 17:29:40;;;;;;;2.63;0.93;;;;;;;28.15;28.80;97763.94;8092527;29;20229;-73
2022/07/26 17:33:42;;;;;;;1.80;1.00;;;;;;;28.14;28.93;97761.47;8092308;29;20233;-74
2022/07/26 17:37:47;;;;;;;4.27;1.27;;;;;;;28.07;28.88;97756.06;8092374;29;20253;-73
2022/07/26 17:41:50;;;;;;;2.03;0.90;;;;;;;28.07;29.42;97761.38;8091825;29;20430;-71
2022/07/26 17:45:52;;;;;;;2.60;1.10;;;;;;;28.13;29.36;97763.31;8091025;29;20535;-72
2022/07/26 17:49:55;;;;;;;7.17;1.10;;;;;;;28.04;29.71;97759.91;8092319;29;20533;-74
2022/07/26 17:54:20;;;;;;;2.17;1.20;;;;;;;27.90;29.78;97766.06;8092266;29;20240;-73
2022/07/26 17:58:24;;;;;;;5.03;1.20;;;;;;;27.99;30.00;97766.81;8092376;29;20524;-73
2022/07/26 18:02:27;;;;;;;3.30;1.00;;;;;;;27.98;30.46;97773.13;8095512;29;20236;-73
2022/07/26 18:06:30;;;;;;;1.87;1.00;;;;;;;28.00;30.03;97771.13;8098642;29;20246;-73
2022/07/26 18:10:34;;;;;;;1.50;0.87;;;;;;;28.04;30.14;97773.22;8098391;29;20239;-73
2022/07/26 18:14:37;;;;;;;2.90;1.30;;;;;;;27.92;29.63;97772.03;8098000;29;20240;-73
2022/07/26 18:18:40;;;;;;;2.53;1.07;;;;;;;27.88;30.09;97766.25;8098067;29;20239;-74
2022/07/26 18:22:43;;;;;;;1.63;1.00;;;;;;;27.96;29.92;97773.31;8097909;29;20429;-74
2022/07/26 18:26:48;;;;;;;2.50;0.77;;;;;;;27.95;30.20;97771.69;8097139;29;20239;-73
2022/07/26 18:30:51;;;;;;;2.87;1.00;;;;;;;27.96;30.11;97769.81;8097755;29;20232;-72
2022/07/26 18:34:54;;;;;;;3.27;1.00;;;;;;;27.95;30.06;97781.47;8114470;29;20355;-75
2022/07/26 18:38:58;;;;;;;4.20;1.00;;;;;;;27.94;30.03;97774.50;8129829;29;20242;-73
2022/07/26 18:43:02;;;;;;;2.87;1.13;;;;;;;27.78;29.60;97773.66;8128426;29;20238;-74
2022/07/26 18:47:06;;;;;;;3.27;0.90;;;;;;;27.71;29.62;97777.22;8126286;29;20251;-73
2022/07/26 18:51:08;;;;;;;5.10;1.20;;;;;;;27.64;29.63;97777.09;8128115;29;20233;-74
2022/07/26 18:55:12;;;;;;;3.87;0.83;;;;;;;27.64;30.03;97777.09;8127831;29;20526;-72
2022/07/26 18:59:17;;;;;;;2.03;1.07;;;;;;;27.56;29.91;97783.34;8127604;29;20232;-74
2022/07/26 19:03:20;;;;;;;2.03;1.17;;;;;;;27.41;30.08;97793.94;8127763;29;20239;-73
2022/07/26 19:07:23;;;;;;;2.37;1.00;;;;;;;27.51;30.38;97791.00;8127553;29;20533;-74
2022/07/26 19:11:26;;;;;;;4.57;1.03;;;;;;;27.43;30.35;97796.41;8127332;29;20246;-74
2022/07/26 19:15:30;;;;;;;2.13;1.10;;;;;;;27.42;30.88;97802.75;8125863;29;20240;-74
2022/07/26 19:19:33;;;;;;;4.07;1.10;;;;;;;27.42;31.22;97806.22;8127174;29;20565;-74
2022/07/26 19:23:36;;;;;;;5.00;1.00;;;;;;;27.34;31.00;97810.78;8126791;29;20245;-74
2022/07/26 19:27:39;;;;;;;4.70;1.20;;;;;;;27.35;31.28;97815.09;8127060;29;20247;-74
2022/07/26 19:31:44;;;;;;;2.50;0.90;;;;;;;27.31;31.44;97822.59;8126913;29;20246;-74
2022/07/26 19:35:47;;;;;;;2.07;1.07;;;;;;;27.26;31.88;97828.47;8118539;29;20437;-73
2022/07/26 19:39:51;;;;;;;5.03;1.23;;;;;;;27.25;31.50;97832.13;8126526;29;20228;-73
2022/07/26 19:43:54;;;;;;;5.43;1.13;;;;;;;27.23;32.04;97828.78;8126178;29;20559;-73
2022/07/26 19:47:58;;;;;;;5.00;1.20;;;;;;;27.18;32.07;97843.59;8126182;29;20442;-73
2022/07/26 19:52:01;;;;;;;2.80;1.00;;;;;;;27.18;32.36;97848.91;8126245;29;20245;-74
2022/07/26 19:56:04;;;;;;;3.47;1.23;;;;;;;27.14;32.44;97848.44;8125844;29;20238;-73
2022/07/26 20:00:09;;;;;;;3.43;1.53;;;;;;;27.10;32.46;97844.47;8123536;29;20242;-73
2022/07/26 20:04:13;;;;;;;2.30;0.90;;;;;;;27.07;32.43;97848.34;8116695;29;20241;-72
2022/07/26 20:08:16;;;;;;;5.90;1.47;;;;;;;27.03;32.59;97849.66;8125666;29;20236;-71
2022/07/26 20:12:20;;;;;;;9.17;2.27;;;;;;;26.99;32.48;97848.38;8124951;29;20237;-73
2022/07/26 20:16:22;;;;;;;5.33;1.60;;;;;;;26.69;32.17;97850.00;8100239;29;20240;-72
2022/07/26 20:20:27;;;;;;;5.00;1.60;;;;;;;26.47;33.00;97855.06;8099337;29;20457;-72
2022/07/26 20:24:30;;;;;;;3.97;1.60;;;;;;;26.31;33.50;97848.00;8117289;29;20239;-72
2022/07/26 20:28:33;;;;;;;4.57;1.80;;;;;;;26.20;33.91;97850.16;8096149;29;20231;-73
2022/07/26 20:32:35;;;;;;;2.97;1.47;;;;;;;26.10;33.84;97855.66;8099695;29;20234;-73
2022/07/26 20:36:39;;;;;;;3.17;1.40;;;;;;;26.03;33.72;97860.84;8093948;29;20239;-74
2022/07/26 20:40:42;;;;;;;21.57;2.37;;;;;;;26.04;33.24;97857.16;8093780;29;20252;-73
2022/07/26 20:44:45;;;;;;;5.50;1.30;;;;;;;25.97;33.72;97853.56;8102692;29;20229;-73
2022/07/26 20:48:50;;;;;;;4.77;1.37;;;;;;;25.84;34.20;97869.13;8116617;29;20485;-72
2022/07/26 20:52:55;;;;;;;4.87;1.53;;;;;;;25.86;33.79;97865.28;8124375;29;20390;-73
2022/07/26 20:56:57;;;;;;;3.80;1.40;;;;;;;25.76;33.91;97869.97;8124016;29;20247;-73
2022/07/26 21:01:01;;;;;;;3.77;1.53;;;;;;;25.69;34.13;97861.81;8124079;29;20304;-73
2022/07/26 21:05:05;;;;;;;7.53;1.50;;;;;;;25.63;34.39;97867.81;8124313;29;20246;-72
2022/07/26 21:09:09;;;;;;;4.63;1.50;;;;;;;25.62;34.36;97860.81;8124086;29;20236;-73
2022/07/26 21:13:12;;;;;;;6.03;1.90;;;;;;;25.55;34.49;97870.44;8124056;29;20236;-73
2022/07/26 21:17:15;;;;;;;4.13;1.60;;;;;;;25.48;34.92;97875.59;8123877;29;20399;-73
2022/07/26 21:21:19;;;;;;;3.67;1.50;;;;;;;25.41;34.87;97871.94;8123927;29;20517;-73
2022/07/26 21:25:23;;;;;;;5.73;1.40;;;;;;;25.39;35.05;97871.25;8123677;29;20237;-73
2022/07/26 21:29:25;;;;;;;3.93;1.57;;;;;;;25.30;35.38;97867.78;8123508;29;20227;-73
2022/07/26 21:33:28;;;;;;;3.27;2.03;;;;;;;25.17;35.35;97873.53;8123774;29;20262;-73
2022/07/26 21:37:31;;;;;;;5.87;1.50;;;;;;;25.06;35.83;97871.19;8122881;29;20262;-73
2022/07/26 21:41:35;;;;;;;5.47;1.60;;;;;;;25.10;35.83;97866.41;8123391;29;20234;-73
2022/07/26 21:45:38;;;;;;;4.47;1.23;;;;;;;25.06;36.07;97868.53;8123421;29;20442;-73
2022/07/26 21:49:41;;;;;;;6.93;1.40;;;;;;;25.12;35.99;97865.22;8123444;29;20269;-73
2022/07/26 21:53:44;;;;;;;3.67;1.30;;;;;;;24.94;36.27;97867.16;8123387;29;20239;-73
2022/07/26 21:57:48;;;;;;;9.53;1.40;;;;;;;24.92;36.36;97859.41;8123148;29;20546;-73
2022/07/26 22:01:50;;;;;;;5.00;1.47;;;;;;;24.88;36.51;97863.34;8115580;29;20543;-73
2022/07/26 22:05:53;;;;;;;7.23;1.50;;;;;;;24.91;36.23;97854.28;8123296;29;20239;-72
2022/07/26 22:09:56;;;;;;;4.23;1.50;;;;;;;24.83;36.51;97860.38;8123314;29;20432;-73
2022/07/26 22:14:00;;;;;;;2.90;1.60;;;;;;;24.84;36.83;97863.84;8122919;29;20240;-73
2022/07/26 22:18:03;;;;;;;3.97;1.87;;;;;;;24.83;36.60;97859.53;8122907;29;20235;-73
2022/07/26 22:22:06;;;;;;;4.00;1.77;;;;;;;24.87;37.47;97859.06;8122937;29;20237;-73
2022/07/26 22:26:09;;;;;;;2.87;2.00;;;;;;;24.73;36.99;97868.44;8122668;29;20236;-73
2022/07/26 22:30:15;;;;;;;9.30;2.30;;;;;;;24.76;37.27;97862.00;8122833;29;20232;-73
2022/07/26 22:34:17;;;;;;;3.83;1.70;;;;;;;24.77;37.48;97861.03;8122600;29;20243;-73
2022/07/26 22:38:20;;;;;;;4.50;1.90;;;;;;;24.73;37.48;97872.91;8122994;29;20237;-73
2022/07/26 22:42:23;;;;;;;3.80;2.13;;;;;;;24.45;38.02;97870.44;8122665;29;20235;-73
2022/07/26 22:46:27;;;;;;;2.97;1.80;;;;;;;24.59;38.13;97869.03;8122638;29;20233;-73
2022/07/26 22:50:31;;;;;;;5.10;2.10;;;;;;;24.71;37.53;97865.13;8128316;29;20233;-73
2022/07/26 22:54:34;;;;;;;4.93;2.10;;;;;;;24.54;37.59;97872.19;8128107;29;20231;-73
2022/07/26 22:58:38;;;;;;;4.57;2.10;;;;;;;24.65;38.02;97868.41;8127912;29;20242;-73
2022/07/26 23:02:42;;;;;;;5.70;2.07;;;;;;;24.45;38.27;97862.50;8127868;29;20238;-73
2022/07/26 23:06:45;;;;;;;8.47;2.40;;;;;;;24.50;38.11;97862.88;8127582;29;20244;-73
2022/07/26 23:10:48;;;;;;;4.83;2.30;;;;;;;24.37;38.41;97862.47;8126788;29;20487;-73
2022/07/26 23:14:51;;;;;;;5.00;2.20;;;;;;;24.27;38.58;97877.63;8127071;29;20409;-73
2022/07/26 23:18:56;;;;;;;3.83;2.33;;;;;;;24.30;38.49;97880.78;8126780;29;20238;-73
2022/07/26 23:22:58;;;;;;;3.50;2.00;;;;;;;24.29;38.43;97873.81;8126690;29;20535;-73
2022/07/26 23:27:01;;;;;;;4.30;2.40;;;;;;;24.15;38.75;97877.88;8126560;29;20245;-73
2022/07/26 23:31:04;;;;;;;5.90;2.27;;;;;;;24.16;38.90;97876.06;8126712;29;20244;-73
2022/07/26 23:35:09;;;;;;;4.73;2.20;;;;;;;23.96;39.16;97867.53;8126160;29;20249;-73
2022/07/26 23:39:12;;;;;;;6.50;2.23;;;;;;;23.97;39.16;97863.88;8126224;29;20251;-73
2022/07/26 23:43:15;;;;;;;6.03;2.20;;;;;;;24.02;39.18;97874.81;8126362;29;20237;-72
2022/07/26 23:47:18;;;;;;;7.47;2.60;;;;;;;23.95;39.18;97868.50;8126251;29;20237;-73
2022/07/26 23:51:22;;;;;;;4.73;2.40;;;;;;;24.06;39.17;97870.06;8126057;29;20232;-73
2022/07/26 23:55:25;;;;;;;6.70;2.60;;;;;;;24.02;39.10;97863.44;8125641;29;20245;-73
2022/07/26 23:59:28;;;;;;;6.20;2.40;;;;;;;23.86;39.42;97861.50;8125569;29;20418;-73
